EGJJ - Jersey Airport
Distance from station: E 5mi, 14km
Updated: 12/11/2017 3:20am
Light rain, Mostly cloudy
Light rain, Mostly cloudy
 Wind from N
Wind: N 30 mph , 48 km/h, Gust: 48 mph , 78 km/h
Temperature: 41°F , 5°C
Wind Chill: 30°F , -1°C
Dew Point: 39°F , 4°C
Humidity: 93%
Barometer: 28.91 inHg , 979 hPa
Summary: Light Rain
Clouds: Mostly Cloudy
Visibility: 6 miles , 9 km
Cloud details: Partly Cloudy 1300 ft
Mostly Cloudy 1700 ft
2017/12/11 11:20 EGJJ 111120Z 01026G42KT 9000 -RA SCT013 BKN017 05/04 Q0979